Mount Vernon, Oregon
Current Conditions -  °F | °C
As of 1:35 AM on Monday 24 Nov 2014 (Local Time) from KGCD Reporting Station
Clear Clear  
Wind Chill: 38°   Ceiling: Unl
Heat Index: 38°   Visibility: 10mi
Dew Point: 32°   Wind: 3mph
Humidity: 79%   Direction: 260°W
Pressure: 30.31"   Gusts: NA
Location:  44.42°N, 119.11°W
Report Text: KGCD 240935Z AUTO 26003KT 10SM CLR 03/00 A3031 RMK AO2 T00331001
Loading
Personal Weather Stations






























Interactive Weather Map New forecast layout! Learn more

10-Day Weather Forecast

Advertisements
Track Severe Weather on mobile